Tor Viking — SLJT — position and weather

sailwx.info

Track history (hours):
 
Tides and Currents Weather Stations Pressure Air Temp Water Temp Dewpoint Dewpoint Depression Visibility Wind Speed Wind Dir Waves Ship Positions

Tor Viking

Last reported at 2017-Jun-15 16:17 UTC. Time now 2017-Jun-29 12:35 UTC.
Position N 56°42' W 002°20'.
Warning: this ship's position is 13 days out of date.

Length 84 m; draft 6.6 m.

Type: Towing. MMSI: 266004000.

Date/timePositionNaut miles runAvg speedWind from/ knotsBaromVisibWave heightAir tempDewpointWater temp
2017-Jun-15 16:17N 56°42' W 002°20'2 0.6
2017-Jun-15 12:30N 56°42' W 002°16'15 4.2
2017-Jun-15 08:57N 56°52' W 001°56'6 9.1
2017-Jun-15 08:16N 56°56' W 001°48'3 9.1
2017-Jun-15 08:00N 56°58' W 001°44'5 9.3
2017-Jun-15 07:28N 57°01' W 001°37'  
2017-Jun-11 16:13N 57°12' W 001°33'2 8.7
2017-Jun-11 16:00N 57°11' W 001°37'4 8.6
2017-Jun-11 15:30N 57°11' W 001°44'4 8.6
2017-Jun-11 15:00N 57°11' W 001°52'7 7.0
2017-Jun-11 14:00N 57°09' W 002°05'0 0.0
2017-Jun-11 13:29N 57°09' W 002°05'0 0.0
2017-Jun-11 12:59N 57°09' W 002°05'0 0.0
2017-Jun-11 12:29N 57°09' W 002°05'0 0.0
2017-Jun-11 11:59N 57°09' W 002°05'0 0.0
2017-Jun-11 11:29N 57°09' W 002°05'0 0.5
2017-Jun-11 11:00N 57°08' W 002°04'2 4.7
2017-Jun-11 10:30N 57°09' W 002°01'2 4.0
2017-Jun-11 10:00N 57°11' W 001°58'1 2.1
2017-Jun-11 09:30N 57°10' W 001°56'2 3.3
2017-Jun-11 09:00N 57°09' W 001°56'2 4.3
2017-Jun-11 08:30N 57°07' W 001°58'2 4.6
2017-Jun-11 08:00N 57°04' W 001°59'3 5.1
2017-Jun-11 07:30N 57°02' W 002°00'3 5.7
2017-Jun-11 07:00N 56°59' W 002°02'4 5.7
2017-Jun-11 06:23N 56°56' W 002°03'16 5.1
2017-Jun-11 03:13N 56°43' W 002°21'  
Track history (hours):
 
Tides and Currents Weather Stations Pressure Air Temp Water Temp Dewpoint Dewpoint Depression Visibility Wind Speed Wind Dir Waves Ship Positions

Tor Viking

Last reported at 2017-Jun-15 16:17 UTC. Time now 2017-Jun-29 12:35 UTC.
Position N 56°42' W 002°20'.
Warning: this ship's position is 13 days out of date.

Length 84 m; draft 6.6 m.

Type: Towing. MMSI: 266004000.

Date/timePositionNaut miles runAvg speedWind from/ knotsBaromVisibWave heightAir tempDewpointWater temp
2017-Jun-15 16:17N 56°42' W 002°20'2 0.6
2017-Jun-15 12:30N 56°42' W 002°16'15 4.2
2017-Jun-15 08:57N 56°52' W 001°56'6 9.1
2017-Jun-15 08:16N 56°56' W 001°48'3 9.1
2017-Jun-15 08:00N 56°58' W 001°44'5 9.3
2017-Jun-15 07:28N 57°01' W 001°37'  
2017-Jun-11 16:13N 57°12' W 001°33'2 8.7
2017-Jun-11 16:00N 57°11' W 001°37'4 8.6
2017-Jun-11 15:30N 57°11' W 001°44'4 8.6
2017-Jun-11 15:00N 57°11' W 001°52'7 7.0
2017-Jun-11 14:00N 57°09' W 002°05'0 0.0
2017-Jun-11 13:29N 57°09' W 002°05'0 0.0
2017-Jun-11 12:59N 57°09' W 002°05'0 0.0
2017-Jun-11 12:29N 57°09' W 002°05'0 0.0
2017-Jun-11 11:59N 57°09' W 002°05'0 0.0
2017-Jun-11 11:29N 57°09' W 002°05'0 0.5
2017-Jun-11 11:00N 57°08' W 002°04'2 4.7
2017-Jun-11 10:30N 57°09' W 002°01'2 4.0
2017-Jun-11 10:00N 57°11' W 001°58'1 2.1
2017-Jun-11 09:30N 57°10' W 001°56'2 3.3
2017-Jun-11 09:00N 57°09' W 001°56'2 4.3
2017-Jun-11 08:30N 57°07' W 001°58'2 4.6
2017-Jun-11 08:00N 57°04' W 001°59'3 5.1
2017-Jun-11 07:30N 57°02' W 002°00'3 5.7
2017-Jun-11 07:00N 56°59' W 002°02'4 5.7
2017-Jun-11 06:23N 56°56' W 002°03'16 5.1
2017-Jun-11 03:13N 56°43' W 002°21'  

Dump ship's entire track history